Time;durP1;ratioP1;P1;durP2;ratioP2;P2;SDS_P1;SDS_P2;PMS_P1;PMS_P2;Temp;Humidity;BMP_temperature;BMP_pressure;BME280_temperature;BME280_humidity;BME280_pressure;Samples;Min_cycle;Max_cycle;Signal;HPM_P1;HPM_P2
2022/07/10 00:01:21;;;;;;;1.42;1.02;;;;;;;19.58;48.90;99902.09;6233728;28;20057;-91
2022/07/10 00:04:22;;;;;;;5.97;1.30;;;;;;;19.56;49.17;99901.44;6250382;28;20506;-83
2022/07/10 00:07:23;;;;;;;4.45;1.08;;;;;;;19.48;49.98;99891.66;6233091;28;20046;-84
2022/07/10 00:10:24;;;;;;;1.40;1.30;;;;;;;19.52;49.73;99891.16;6250996;28;20053;-83
2022/07/10 00:13:25;;;;;;;3.97;1.40;;;;;;;19.56;51.56;99883.75;6216646;28;20037;-83
2022/07/10 00:16:26;;;;;;;4.00;1.20;;;;;;;19.56;52.75;99881.13;6216756;28;20041;-92
2022/07/10 00:19:27;;;;;;;1.88;1.20;;;;;;;19.42;49.65;99871.09;6250567;28;20384;-91
2022/07/10 00:22:30;;;;;;;4.95;1.52;;;;;;;19.42;52.00;99866.63;6217843;28;20120;-92
2022/07/10 00:25:31;;;;;;;3.75;1.30;;;;;;;19.39;50.60;99866.09;6250293;28;20045;-92
2022/07/10 00:28:33;;;;;;;4.18;1.20;;;;;;;19.39;50.44;99866.09;6233495;28;20050;-91
2022/07/10 00:31:33;;;;;;;2.77;1.47;;;;;;;19.30;51.55;99847.53;6232772;28;20052;-91
2022/07/10 00:34:35;;;;;;;3.73;1.00;;;;;;;19.29;52.78;99856.47;6250073;28;20037;-93
2022/07/10 00:37:36;;;;;;;2.40;1.00;;;;;;;19.17;51.00;99849.75;6217151;28;20037;-92
2022/07/10 00:40:39;;;;;;;3.80;1.17;;;;;;;19.16;50.91;99849.91;6250132;28;20465;-92
2022/07/10 00:43:59;;;;;;;3.03;1.40;;;;;;;19.19;52.47;99841.66;6217228;28;20053;-92
2022/07/10 00:47:00;;;;;;;1.95;1.27;;;;;;;19.08;50.82;99845.38;6251003;28;20116;-90
2022/07/10 00:50:01;;;;;;;4.33;1.23;;;;;;;18.95;51.08;99840.50;6215804;28;20523;-83
2022/07/10 00:53:07;;;;;;;1.50;1.23;;;;;;;18.84;51.89;99838.06;6232791;28;20049;-93
2022/07/10 00:56:09;;;;;;;3.88;1.40;;;;;;;18.76;52.04;99830.03;6231890;28;20042;-84
2022/07/10 00:59:10;;;;;;;3.67;1.40;;;;;;;18.74;52.28;99835.50;6231052;28;20094;-84
2022/07/10 01:02:12;;;;;;;3.58;1.30;;;;;;;18.71;52.20;99849.00;6231483;28;20456;-92
2022/07/10 01:05:14;;;;;;;2.83;1.50;;;;;;;18.71;53.29;99835.78;6247846;28;20053;-84
2022/07/10 01:08:15;;;;;;;7.07;1.40;;;;;;;18.83;52.28;99842.53;6230624;28;20385;-84
2022/07/10 01:11:16;;;;;;;3.27;1.40;;;;;;;18.89;53.23;99844.56;6232121;28;20041;-90
2022/07/10 01:14:17;;;;;;;3.50;1.50;;;;;;;18.77;52.50;99842.28;6248744;28;20065;-91
2022/07/10 01:17:19;;;;;;;4.27;1.53;;;;;;;18.81;52.41;99833.09;6231517;28;20045;-83
2022/07/10 01:20:20;;;;;;;;;;;;;;;18.81;52.77;99833.09;6215493;28;20046;-92
2022/07/10 01:23:23;;;;;;;4.13;1.20;;;;;;;18.68;53.45;99834.28;6231358;28;20030;-84
2022/07/10 01:26:24;;;;;;;5.43;1.35;;;;;;;18.67;52.90;99840.53;6248147;28;20045;-91
2022/07/10 01:29:26;;;;;;;4.68;1.92;;;;;;;18.66;53.11;99833.59;6249089;28;20061;-91
2022/07/10 01:32:39;;;;;;;2.78;1.40;;;;;;;18.78;52.63;99830.72;6247959;28;20542;-92
2022/07/10 01:35:40;;;;;;;3.00;1.27;;;;;;;18.77;52.87;99821.97;6248968;28;20041;-91
2022/07/10 01:38:41;;;;;;;2.40;1.20;;;;;;;18.62;52.96;99821.69;6247704;28;20046;-90
2022/07/10 01:41:42;;;;;;;4.43;1.60;;;;;;;18.66;53.36;99827.50;6247674;28;20041;-91
2022/07/10 01:44:43;;;;;;;2.10;1.40;;;;;;;18.63;53.38;99820.69;6213788;28;20051;-84
2022/07/10 01:47:44;;;;;;;7.77;1.70;;;;;;;18.78;53.11;99822.78;6229979;28;20458;-90
2022/07/10 01:50:45;;;;;;;3.58;1.80;;;;;;;18.69;53.23;99822.72;6230705;28;20068;-83
2022/07/10 01:53:45;;;;;;;2.72;1.45;;;;;;;18.73;52.99;99823.25;6215669;28;20068;-91
2022/07/10 01:56:47;;;;;;;5.18;1.55;;;;;;;18.68;53.57;99805.22;6230379;28;20049;-84
2022/07/10 01:59:49;;;;;;;3.83;1.77;;;;;;;18.76;53.53;99822.09;6247134;28;20399;-83
2022/07/10 02:06:12;;;;;;;5.65;1.65;;;;;;;18.56;53.67;99827.56;6231955;28;20091;-83
2022/07/10 02:09:16;;;;;;;5.23;1.70;;;;;;;18.58;53.68;99816.84;6245781;28;20475;-83
2022/07/10 02:12:17;;;;;;;4.00;1.77;;;;;;;18.65;52.54;99821.34;6214585;28;20274;-92
2022/07/10 02:15:17;;;;;;;2.53;1.90;;;;;;;18.79;53.49;99825.31;6230272;28;20037;-83
2022/07/10 02:18:18;;;;;;;4.20;1.52;;;;;;;18.76;52.33;99820.31;6213174;28;20041;-91
2022/07/10 02:21:20;;;;;;;3.38;1.77;;;;;;;18.69;52.37;99806.03;6230699;28;20056;-89
2022/07/10 02:24:23;;;;;;;4.72;1.65;;;;;;;18.69;51.81;99819.25;6213509;28;20041;-83
2022/07/10 02:27:24;;;;;;;2.42;1.50;;;;;;;18.73;51.97;99810.88;6246468;28;20048;-83
2022/07/10 02:30:27;;;;;;;3.67;1.87;;;;;;;18.90;52.96;99811.88;6245377;28;20079;-83
2022/07/10 02:33:28;;;;;;;3.03;1.50;;;;;;;18.91;51.54;99810.88;6213296;28;20077;-90
2022/07/10 02:36:29;;;;;;;3.43;1.90;;;;;;;18.95;51.88;99800.84;6214029;28;20373;-90
2022/07/10 02:39:32;;;;;;;3.63;1.60;;;;;;;18.99;52.76;99806.66;6246482;28;20053;-90
2022/07/10 02:42:39;;;;;;;3.33;1.85;;;;;;;18.72;52.21;99806.56;6245739;28;20037;-83
2022/07/10 02:45:42;;;;;;;5.05;1.48;;;;;;;18.83;52.16;99804.72;6247339;28;20533;-83
2022/07/10 02:48:43;;;;;;;3.05;1.67;;;;;;;18.79;52.49;99798.88;6213498;28;20046;-90
2022/07/10 02:51:44;;;;;;;2.35;1.42;;;;;;;18.78;51.97;99797.22;6246628;28;20439;-90
2022/07/10 02:54:45;;;;;;;4.73;1.93;;;;;;;18.69;52.36;99814.78;6229851;28;20045;-90
2022/07/10 02:57:46;;;;;;;2.63;1.60;;;;;;;18.46;52.90;99816.25;6217437;28;20042;-82
2022/07/10 03:00:47;;;;;;;5.38;1.73;;;;;;;18.40;52.93;99815.03;6240359;28;20130;-83
2022/07/10 03:03:50;;;;;;;2.95;1.33;;;;;;;18.38;53.11;99811.69;6225887;28;20502;-89
2022/07/10 03:06:51;;;;;;;5.00;1.70;;;;;;;18.43;53.28;99816.53;6243124;28;20303;-89
2022/07/10 03:09:53;;;;;;;3.80;1.60;;;;;;;18.42;53.18;99812.22;6258214;28;20048;-82
2022/07/10 03:12:54;;;;;;;4.00;1.58;;;;;;;18.39;53.19;99802.81;6241672;28;20541;-88
2022/07/10 03:15:55;;;;;;;3.90;1.60;;;;;;;18.37;54.06;99807.41;6242057;28;20045;-90
2022/07/10 03:18:55;;;;;;;6.13;2.00;;;;;;;18.27;53.70;99819.84;6224860;28;20071;-89
2022/07/10 03:21:56;;;;;;;2.80;1.60;;;;;;;18.08;54.53;99804.97;6225142;28;20506;-81
2022/07/10 03:24:57;;;;;;;3.10;1.60;;;;;;;18.29;54.42;99815.25;6225011;28;20095;-89
2022/07/10 03:27:58;;;;;;;7.25;1.55;;;;;;;18.17;54.02;99817.25;6225260;28;20118;-87
2022/07/10 03:30:59;;;;;;;4.70;1.58;;;;;;;18.25;54.26;99814.72;6241174;28;20045;-83
2022/07/10 03:34:00;;;;;;;5.45;1.50;;;;;;;18.32;53.64;99822.84;6241949;28;20094;-90
2022/07/10 03:37:01;;;;;;;2.75;1.30;;;;;;;18.26;54.48;99811.09;6241497;28;20073;-82
2022/07/10 03:40:03;;;;;;;4.03;1.30;;;;;;;18.12;55.45;99817.72;6208321;28;20392;-81
2022/07/10 03:43:04;;;;;;;3.20;1.33;;;;;;;18.17;55.18;99819.91;6241095;28;20124;-87
2022/07/10 03:46:06;;;;;;;5.38;1.70;;;;;;;18.20;55.17;99813.47;6258246;28;20537;-89
2022/07/10 03:49:06;;;;;;;5.20;1.73;;;;;;;18.20;56.12;99816.97;6240791;28;20049;-88
2022/07/10 03:52:07;;;;;;;5.07;1.50;;;;;;;18.14;57.04;99812.28;6224220;28;20049;-90
2022/07/10 03:55:08;;;;;;;1.50;1.40;;;;;;;18.00;58.43;99815.44;6275164;28;20103;-90
2022/07/10 03:58:10;;;;;;;1.85;1.08;;;;;;;18.20;56.82;99824.03;6274835;28;20111;-89
2022/07/10 04:01:13;;;;;;;3.30;1.45;;;;;;;18.06;56.87;99822.75;6249273;28;20459;-87
2022/07/10 04:04:14;;;;;;;4.13;1.48;;;;;;;18.07;57.30;99822.59;6233360;28;20092;-87
2022/07/10 04:07:16;;;;;;;4.55;1.60;;;;;;;18.15;57.10;99819.22;6230880;28;20545;-90
2022/07/10 04:10:17;;;;;;;2.47;1.65;;;;;;;18.19;56.47;99819.75;6216749;28;20108;-82
2022/07/10 04:13:18;;;;;;;3.25;1.38;;;;;;;18.26;57.15;99824.31;6248954;28;20061;-81
2022/07/10 04:16:19;;;;;;;2.40;1.33;;;;;;;18.10;56.52;99818.84;6233573;28;20480;-88
2022/07/10 04:19:23;;;;;;;6.05;1.52;;;;;;;18.20;56.57;99821.41;6232644;28;20033;-88
2022/07/10 04:22:27;;;;;;;4.70;1.58;;;;;;;18.06;56.98;99817.47;6250016;28;20037;-91
2022/07/10 04:25:31;;;;;;;4.45;1.42;;;;;;;18.13;56.83;99814.06;6249691;28;20064;-81
2022/07/10 04:28:32;;;;;;;4.35;1.60;;;;;;;18.21;57.12;99817.81;6233388;28;20053;-89
2022/07/10 04:31:35;;;;;;;7.40;1.45;;;;;;;18.19;56.71;99815.31;6251313;28;20076;-89
2022/07/10 04:34:36;;;;;;;5.65;1.60;;;;;;;18.29;56.49;99804.69;6217784;28;20048;-91
2022/07/10 04:37:39;;;;;;;2.53;1.55;;;;;;;18.27;57.55;99819.84;6251914;28;20042;-88
2022/07/10 04:40:40;;;;;;;4.18;1.50;;;;;;;18.22;57.30;99804.47;6248615;28;20048;-89
2022/07/10 04:43:41;;;;;;;2.05;1.50;;;;;;;18.21;56.28;99809.88;6250705;28;20041;-89
2022/07/10 04:46:42;;;;;;;3.80;1.42;;;;;;;18.24;56.84;99809.56;6232424;28;20056;-91
2022/07/10 04:49:43;;;;;;;2.63;1.33;;;;;;;18.06;57.14;99810.38;6231816;28;20041;-90
2022/07/10 04:52:44;;;;;;;3.30;1.38;;;;;;;18.25;57.34;99805.97;6230956;28;20037;-82
2022/07/10 04:55:45;;;;;;;8.25;1.60;;;;;;;18.37;56.60;99810.06;6230921;28;20057;-91
2022/07/10 04:58:48;;;;;;;2.00;1.23;;;;;;;18.41;56.82;99802.63;6248158;28;20499;-90
2022/07/10 05:01:49;;;;;;;2.15;1.58;;;;;;;18.56;56.35;99793.22;6231255;28;20054;-90
2022/07/10 05:04:49;;;;;;;4.82;1.30;;;;;;;18.61;56.23;99788.28;6231398;28;20044;-89
2022/07/10 05:07:51;;;;;;;3.00;1.33;;;;;;;18.70;56.06;99787.41;6247920;28;20057;-90
2022/07/10 05:10:54;;;;;;;3.88;1.50;;;;;;;18.46;57.74;99776.63;6214967;28;20045;-83
2022/07/10 05:13:56;;;;;;;3.85;1.63;;;;;;;18.77;56.84;99784.97;6214824;28;20041;-91
2022/07/10 05:16:57;;;;;;;2.30;1.52;;;;;;;18.78;57.52;99785.78;6231012;28;20048;-82
2022/07/10 05:19:58;;;;;;;2.75;1.40;;;;;;;18.92;55.82;99780.84;6214005;28;20042;-90
2022/07/10 05:22:58;;;;;;;2.58;1.58;;;;;;;18.95;57.25;99777.03;6247522;28;20108;-90
2022/07/10 05:26:02;;;;;;;2.67;1.58;;;;;;;18.88;56.52;99787.41;6230435;28;20037;-82
2022/07/10 05:29:03;;;;;;;4.15;1.42;;;;;;;18.96;58.08;99785.81;6231506;28;20045;-91
2022/07/10 05:32:04;;;;;;;3.40;1.77;;;;;;;19.06;56.23;99774.13;6231396;28;20400;-91
2022/07/10 05:35:06;;;;;;;2.77;1.47;;;;;;;19.00;56.83;99779.22;6246783;28;20045;-83
2022/07/10 05:38:06;;;;;;;2.80;1.23;;;;;;;19.23;54.54;99785.66;6229810;28;20099;-80
2022/07/10 05:41:07;;;;;;;2.88;1.58;;;;;;;19.01;55.72;99778.25;6230106;28;20484;-88
2022/07/10 05:44:12;;;;;;;4.47;1.73;;;;;;;19.38;55.39;99787.75;6230141;28;20041;-90
2022/07/10 05:47:12;;;;;;;2.95;1.23;;;;;;;19.46;55.02;99779.84;6213866;28;20049;-89
2022/07/10 05:50:13;;;;;;;3.07;1.10;;;;;;;19.52;53.06;99777.41;6197257;28;20065;-82
2022/07/10 05:53:15;;;;;;;3.50;1.50;;;;;;;19.77;53.21;99774.03;6229721;28;20128;-86
2022/07/10 05:56:15;;;;;;;5.85;1.30;;;;;;;19.70;52.20;99763.22;6229745;28;20056;-80
2022/07/10 05:59:16;;;;;;;3.20;1.30;;;;;;;19.96;50.82;99775.59;6246198;28;20408;-81
2022/07/10 06:02:17;;;;;;;4.45;1.20;;;;;;;19.97;50.27;99764.00;6229439;28;20399;-88
2022/07/10 06:05:18;;;;;;;1.90;1.00;;;;;;;20.02;51.17;99778.44;6229609;28;20080;-85
2022/07/10 06:08:19;;;;;;;4.75;1.33;;;;;;;20.17;48.68;99770.69;6245759;28;20049;-81
2022/07/10 06:11:20;;;;;;;4.30;1.40;;;;;;;20.33;50.40;99776.00;6213052;28;20044;-86
2022/07/10 06:14:21;;;;;;;2.97;1.40;;;;;;;20.57;48.86;99777.03;6245545;28;20073;-82
2022/07/10 06:17:24;;;;;;;2.90;1.47;;;;;;;20.65;47.65;99766.47;6229180;28;20105;-85
2022/07/10 06:20:26;;;;;;;4.50;1.58;;;;;;;20.40;47.48;99764.75;6229409;28;20488;-86
2022/07/10 06:23:26;;;;;;;5.88;1.30;;;;;;;20.49;49.59;99774.38;6245659;28;20044;-86
2022/07/10 06:26:27;;;;;;;2.33;1.50;;;;;;;20.38;48.99;99762.25;6229587;28;20049;-86
2022/07/10 06:29:28;;;;;;;2.33;1.52;;;;;;;20.72;48.38;99770.09;6245479;28;20088;-87
2022/07/10 06:32:29;;;;;;;4.53;1.50;;;;;;;20.79;48.58;99764.13;6217411;28;20449;-83
2022/07/10 06:35:32;;;;;;;3.27;1.50;;;;;;;20.70;50.53;99760.66;6250672;28;20042;-82
2022/07/10 06:38:33;;;;;;;5.45;1.40;;;;;;;21.28;47.37;99767.53;6218370;28;20495;-82
2022/07/10 06:41:38;;;;;;;;;;;;;;;21.71;47.21;99777.88;6250776;28;20443;-82
2022/07/10 06:44:43;;;;;;;6.57;1.50;;;;;;;22.02;44.85;99767.25;6234536;28;20299;-87
2022/07/10 06:47:56;;;;;;;3.80;1.70;;;;;;;22.12;45.41;99762.56;6250504;28;20042;-80
2022/07/10 06:50:57;;;;;;;5.20;1.40;;;;;;;22.04;46.16;99765.25;6235659;28;20037;-81
2022/07/10 06:53:58;;;;;;;3.80;1.40;;;;;;;22.05;46.27;99760.75;6217796;28;20045;-80
2022/07/10 06:56:59;;;;;;;4.33;1.80;;;;;;;22.42;45.56;99762.72;6250463;28;20038;-82
2022/07/10 07:00:00;;;;;;;10.40;1.88;;;;;;;22.68;44.61;99757.03;6250098;28;20037;-84
2022/07/10 07:03:03;;;;;;;6.30;1.50;;;;;;;22.86;41.67;99763.88;6233522;28;20056;-82
2022/07/10 07:06:04;;;;;;;8.27;1.50;;;;;;;23.36;40.31;99765.03;6233927;28;20076;-82
2022/07/10 07:09:05;;;;;;;1.77;1.27;;;;;;;23.84;40.52;99764.66;6217085;28;20137;-83
2022/07/10 07:12:07;;;;;;;2.83;1.48;;;;;;;23.61;39.94;99764.75;6233288;28;20373;-84
2022/07/10 07:15:08;;;;;;;3.00;1.45;;;;;;;22.34;42.21;99768.09;6233045;28;20498;-80
2022/07/10 07:18:12;;;;;;;7.72;1.60;;;;;;;21.91;43.52;99762.34;6249558;28;20561;-88
2022/07/10 07:24:32;;;;;;;3.53;1.55;;;;;;;23.27;40.16;99761.66;6250999;28;20045;-91
2022/07/10 07:27:35;;;;;;;7.03;1.57;;;;;;;23.11;40.83;99752.00;6250339;28;20161;-90
2022/07/10 07:30:36;;;;;;;4.03;1.20;;;;;;;23.15;40.05;99741.81;6251447;28;20110;-93
2022/07/10 07:33:36;;;;;;;5.27;1.83;;;;;;;22.95;41.16;99744.16;6216631;28;20045;-81
2022/07/10 07:36:37;;;;;;;1.33;1.10;;;;;;;23.31;37.11;99744.31;6232883;28;20096;-82
2022/07/10 07:39:38;;;;;;;3.37;1.30;;;;;;;23.44;39.58;99750.81;6216997;28;20096;-82
2022/07/10 07:42:40;;;;;;;2.70;1.37;;;;;;;23.85;39.44;99751.16;6216779;28;20052;-89
2022/07/10 07:45:41;;;;;;;3.58;1.13;;;;;;;24.28;39.00;99751.19;6250277;28;20033;-89
2022/07/10 07:48:42;;;;;;;2.28;1.25;;;;;;;24.60;40.41;99745.56;6233768;28;20124;-91
2022/07/10 07:51:44;;;;;;;3.38;1.40;;;;;;;24.11;36.42;99731.97;6233877;28;20042;-91
2022/07/10 07:54:45;;;;;;;2.23;1.30;;;;;;;24.77;36.24;99746.09;6250316;28;20049;-91
2022/07/10 07:57:46;;;;;;;2.08;1.30;;;;;;;23.70;36.50;99745.81;6250065;28;20037;-92
2022/07/10 08:00:47;;;;;;;;;;;;;;;23.06;36.59;99740.25;6253209;28;20083;-91
2022/07/10 08:03:51;;;;;;;1.55;1.10;;;;;;;23.25;38.15;99723.75;6275437;28;19974;-91
2022/07/10 08:06:53;;;;;;;5.20;1.45;;;;;;;23.66;38.38;99735.72;6241307;28;20056;-79
2022/07/10 08:09:54;;;;;;;2.92;1.60;;;;;;;24.27;36.90;99738.88;6240240;28;20053;-81
2022/07/10 08:12:55;;;;;;;2.88;1.38;;;;;;;24.28;35.90;99740.53;6240797;28;20047;-91
2022/07/10 08:15:56;;;;;;;4.43;1.47;;;;;;;23.43;37.26;99734.03;6241020;28;20126;-94
2022/07/10 08:18:57;;;;;;;3.10;1.20;;;;;;;23.31;37.68;99738.97;6225168;28;20040;-89
2022/07/10 08:22:01;;;;;;;2.08;1.30;;;;;;;23.71;36.87;99728.81;6257751;28;20041;-92
2022/07/10 08:25:02;;;;;;;3.10;1.50;;;;;;;24.67;37.01;99728.59;6224740;28;20080;-80
2022/07/10 08:28:05;;;;;;;2.63;1.55;;;;;;;24.86;35.96;99728.94;6239751;28;20487;-80
2022/07/10 08:31:06;;;;;;;3.63;1.65;;;;;;;25.72;34.20;99731.28;6256184;28;20044;-80
2022/07/10 08:34:09;;;;;;;3.33;1.50;;;;;;;25.70;34.51;99717.31;6239678;28;20049;-83
2022/07/10 08:37:10;;;;;;;4.60;1.20;;;;;;;24.42;36.75;99717.50;6239894;28;20048;-81
2022/07/10 08:40:13;;;;;;;1.47;1.30;;;;;;;24.23;35.78;99728.78;6222843;28;20480;-91
2022/07/10 08:43:15;;;;;;;4.55;1.40;;;;;;;24.45;35.58;99718.94;6274476;28;20094;-82
2022/07/10 08:46:17;;;;;;;3.35;1.45;;;;;;;24.22;35.40;99727.16;6255822;28;20056;-81
2022/07/10 08:49:26;;;;;;;3.45;1.25;;;;;;;23.26;36.34;99724.56;6273406;28;20092;-79
2022/07/10 08:52:33;;;;;;;1.30;1.20;;;;;;;24.18;36.16;99713.38;6255396;28;20353;-81
2022/07/10 08:55:36;;;;;;;5.75;1.55;;;;;;;24.47;35.05;99712.41;6255452;28;20072;-81
2022/07/10 08:58:42;;;;;;;1.98;1.40;;;;;;;24.43;38.16;99718.31;6256332;28;20402;-82
2022/07/10 09:01:43;;;;;;;2.83;1.40;;;;;;;25.02;34.37;99712.63;6255061;28;20059;-80
2022/07/10 09:04:44;;;;;;;2.65;1.20;;;;;;;24.96;34.07;99715.22;6239207;28;20099;-79
2022/07/10 09:07:46;;;;;;;1.38;1.10;;;;;;;24.77;33.76;99714.94;6273050;28;20053;-83
2022/07/10 09:10:46;;;;;;;2.27;1.60;;;;;;;23.82;35.31;99711.56;6223115;28;20438;-90
2022/07/10 09:13:52;;;;;;;1.20;1.10;;;;;;;24.22;34.76;99705.81;6224201;28;20037;-92
2022/07/10 09:16:53;;;;;;;1.77;1.15;;;;;;;24.46;34.63;99700.09;6257413;28;20391;-91
2022/07/10 09:19:54;;;;;;;1.55;1.02;;;;;;;24.61;34.00;99697.38;6256830;28;20044;-82
2022/07/10 09:22:57;;;;;;;2.83;1.17;;;;;;;24.43;34.15;99699.66;6257823;28;20476;-93
2022/07/10 09:26:04;;;;;;;2.47;1.38;;;;;;;25.03;33.61;99692.91;6257326;28;20037;-92
2022/07/10 09:29:10;;;;;;;1.92;1.33;;;;;;;24.99;33.41;99701.53;6274038;28;20040;-80
2022/07/10 09:32:11;;;;;;;1.67;1.10;;;;;;;25.13;32.47;99689.91;6255678;28;20041;-93
2022/07/10 09:38:44;;;;;;;3.95;1.20;;;;;;;25.43;32.29;99692.31;6272936;28;20041;-92
2022/07/10 09:41:45;;;;;;;4.90;1.40;;;;;;;25.92;32.67;99692.13;6273642;28;20045;-92
2022/07/10 09:44:48;;;;;;;2.10;1.30;;;;;;;25.30;31.52;99691.22;6240503;28;20091;-92
2022/07/10 09:47:54;;;;;;;2.03;1.35;;;;;;;26.61;32.10;99686.63;6256308;28;20553;-93
2022/07/10 09:50:55;;;;;;;5.40;1.52;;;;;;;26.13;30.60;99691.13;6273168;28;20094;-92
2022/07/10 09:54:01;;;;;;;2.30;1.40;;;;;;;26.59;30.11;99678.81;6254298;28;20053;-81
2022/07/10 09:57:05;;;;;;;2.78;1.20;;;;;;;26.22;30.09;99680.22;6239019;28;20033;-93
2022/07/10 10:00:07;;;;;;;3.25;1.20;;;;;;;27.40;29.92;99684.81;6255455;28;20044;-81
2022/07/10 10:03:09;;;;;;;11.05;2.20;;;;;;;27.55;28.71;99661.25;6221661;28;20064;-80
2022/07/10 10:06:14;;;;;;;3.17;1.40;;;;;;;27.21;29.39;99655.19;6254988;28;20111;-93
2022/07/10 10:09:21;;;;;;;2.35;1.23;;;;;;;26.12;30.96;99668.06;6273237;28;20045;-81
2022/07/10 10:12:42;;;;;;;1.10;1.00;;;;;;;26.73;31.45;99668.91;6271643;28;20106;-80
2022/07/10 10:15:43;;;;;;;2.53;1.20;;;;;;;27.18;29.01;99660.97;6254624;28;20068;-91
2022/07/10 10:22:07;;;;;;;4.95;1.40;;;;;;;28.06;29.00;99662.19;6272047;28;20381;-91
2022/07/10 10:25:09;;;;;;;2.92;1.27;;;;;;;27.50;28.42;99653.84;6238748;28;20037;-80
2022/07/10 10:28:12;;;;;;;3.00;1.40;;;;;;;26.78;30.47;99647.69;6254143;28;20084;-91
2022/07/10 10:31:13;;;;;;;6.63;1.17;;;;;;;26.63;30.15;99650.59;6254688;28;20056;-94
2022/07/10 10:34:43;;;;;;;1.60;1.23;;;;;;;26.25;31.20;99653.91;6221162;28;20045;-79
2022/07/10 10:37:51;;;;;;;2.25;1.30;;;;;;;25.96;32.02;99646.25;6271459;28;20043;-79
2022/07/10 10:40:52;;;;;;;2.60;1.20;;;;;;;26.99;32.68;99648.47;6253288;28;20107;-80
2022/07/10 10:44:17;;;;;;;1.73;1.50;;;;;;;26.11;31.19;99639.69;6253556;28;20482;-81
2022/07/10 10:48:15;;;;;;;2.40;1.20;;;;;;;25.38;32.42;99652.88;6269711;28;20127;-81
2022/07/10 10:51:16;;;;;;;3.08;1.27;;;;;;;25.15;33.03;99639.81;6250639;28;20081;-80
2022/07/10 10:54:21;;;;;;;3.75;1.40;;;;;;;24.72;32.77;99648.00;6253223;28;20041;-81
2022/07/10 10:57:37;;;;;;;1.70;1.10;;;;;;;24.63;33.84;99642.00;6253808;28;20041;-80
2022/07/10 11:00:40;;;;;;;2.28;1.30;;;;;;;25.07;32.31;99622.09;6237488;28;20453;-91
2022/07/10 11:03:41;;;;;;;1.35;1.23;;;;;;;26.12;33.85;99629.81;6221979;28;20060;-90
2022/07/10 11:06:44;;;;;;;1.55;1.20;;;;;;;26.12;31.73;99621.81;6237267;28;20041;-81
2022/07/10 11:09:47;;;;;;;2.13;1.27;;;;;;;25.62;32.88;99623.97;6253698;28;20045;-92
2022/07/10 11:13:05;;;;;;;5.57;1.40;;;;;;;26.23;31.31;99617.69;6221310;28;20098;-91
2022/07/10 11:16:12;;;;;;;2.42;1.30;;;;;;;27.19;31.48;99616.28;6254544;28;20503;-79
2022/07/10 11:19:18;;;;;;;2.13;1.20;;;;;;;27.79;28.97;99618.63;6258149;28;20045;-92
2022/07/10 11:22:49;;;;;;;1.55;1.10;;;;;;;28.34;28.39;99603.56;6259132;28;20094;-88
2022/07/10 11:26:11;;;;;;;8.75;1.30;;;;;;;27.55;29.72;99610.34;6241342;28;20107;-92
2022/07/10 11:29:19;;;;;;;3.72;1.13;;;;;;;27.50;28.91;99607.47;6257986;28;20044;-87
2022/07/10 11:32:20;;;;;;;2.72;1.35;;;;;;;27.79;27.68;99606.06;6259375;28;20040;-89
2022/07/10 11:35:21;;;;;;;1.85;1.20;;;;;;;28.69;27.47;99611.09;6241286;28;20072;-89
2022/07/10 11:38:26;;;;;;;4.55;1.50;;;;;;;28.51;30.25;99600.34;6275375;28;20458;-79
2022/07/10 11:41:27;;;;;;;2.25;1.02;;;;;;;28.45;26.77;99591.28;6257215;28;20045;-79
2022/07/10 11:44:30;;;;;;;2.70;1.05;;;;;;;29.42;28.22;99595.16;6240557;28;20049;-79
2022/07/10 11:47:32;;;;;;;1.15;1.00;;;;;;;27.55;26.56;99594.28;6257662;28;20116;-89
2022/07/10 11:50:38;;;;;;;1.02;0.90;;;;;;;26.09;28.52;99590.16;6257158;28;20056;-79
2022/07/10 11:53:41;;;;;;;4.03;0.90;;;;;;;25.90;29.60;99605.13;6240161;28;20087;-79
2022/07/10 11:56:49;;;;;;;4.90;1.20;;;;;;;25.63;29.85;99605.06;6240936;28;20041;-78
2022/07/10 11:59:50;;;;;;;2.58;1.20;;;;;;;25.78;31.31;99612.06;6274492;28;20072;-81
2022/07/10 12:02:53;;;;;;;4.95;1.65;;;;;;;25.22;34.85;99626.50;6239856;28;20055;-81
2022/07/10 12:05:54;;;;;;;4.70;1.30;;;;;;;24.42;39.57;99626.00;6256770;28;20044;-80
2022/07/10 12:08:56;;;;;;;1.42;1.10;;;;;;;23.84;38.67;99634.94;6257169;28;20041;-79
2022/07/10 12:11:59;;;;;;;4.07;1.20;;;;;;;23.47;38.78;99639.47;6274349;28;20507;-89
2022/07/10 12:15:00;;;;;;;7.35;1.45;;;;;;;23.28;45.40;99640.03;6275188;28;20041;-89
2022/07/10 12:18:01;;;;;;;7.23;1.10;;;;;;;23.21;47.10;99641.81;6240797;28;20099;-88
2022/07/10 12:21:03;;;;;;;4.90;1.30;;;;;;;23.20;45.95;99645.47;6223653;28;20037;-80
2022/07/10 12:24:07;;;;;;;2.63;1.02;;;;;;;23.23;40.44;99642.44;6256773;28;20041;-89
2022/07/10 12:27:09;;;;;;;2.22;1.30;;;;;;;23.15;40.18;99663.84;6241193;28;20079;-91
2022/07/10 12:30:12;;;;;;;13.32;1.98;;;;;;;22.06;45.73;99690.72;6239469;28;20099;-87
2022/07/10 12:33:18;;;;;;;12.50;1.60;;;;;;;20.88;51.14;99710.94;6273901;28;20430;-78
2022/07/10 12:36:20;;;;;;;6.45;1.58;;;;;;;20.08;56.50;99745.19;6256077;28;20053;-85
2022/07/10 12:39:23;;;;;;;8.18;2.08;;;;;;;19.20;66.63;99770.09;6273875;28;20033;-83
2022/07/10 12:42:25;;;;;;;7.40;2.10;;;;;;;18.33;80.22;99790.19;6256237;28;20056;-88
2022/07/10 12:45:28;;;;;;;9.93;2.60;;;;;;;17.42;92.52;99771.59;6256176;28;20045;-89
2022/07/10 12:48:29;;;;;;;5.15;2.30;;;;;;;16.78;100.00;99776.59;6274140;28;20049;-86
2022/07/10 12:51:34;;;;;;;4.50;2.00;;;;;;;16.58;100.00;99767.06;6223194;28;20076;-85
2022/07/10 12:54:38;;;;;;;4.40;2.20;;;;;;;16.42;100.00;99778.94;6255593;28;20075;-80
2022/07/10 12:57:57;;;;;;;3.10;2.05;;;;;;;16.30;100.00;99796.66;6222789;28;20487;-86
2022/07/10 13:00:57;;;;;;;3.85;2.33;;;;;;;16.39;100.00;99791.56;6255562;28;20037;-84
2022/07/10 13:04:00;;;;;;;3.40;2.20;;;;;;;16.41;100.00;99801.00;6222592;28;20049;-89
2022/07/10 13:07:14;;;;;;;3.28;2.25;;;;;;;16.61;100.00;99796.56;6255485;28;20044;-84
2022/07/10 13:10:15;;;;;;;4.05;2.40;;;;;;;16.78;100.00;99788.91;6223014;28;20049;-90
2022/07/10 13:13:16;;;;;;;4.07;2.13;;;;;;;17.21;100.00;99777.09;6272915;28;20053;-78
2022/07/10 13:16:17;;;;;;;4.57;2.20;;;;;;;17.61;100.00;99771.53;6254942;28;20037;-78
2022/07/10 13:19:19;;;;;;;3.03;1.58;;;;;;;17.78;100.00;99775.22;6272477;28;20041;-78
2022/07/10 13:22:19;;;;;;;4.25;2.13;;;;;;;17.97;96.17;99773.47;6222172;28;20037;-77
2022/07/10 13:25:21;;;;;;;1.80;1.70;;;;;;;18.15;96.11;99771.69;6238384;28;20064;-82
2022/07/10 13:28:22;;;;;;;1.60;1.50;;;;;;;18.04;89.33;99778.03;6206816;28;20413;-86
2022/07/10 13:31:23;;;;;;;2.43;1.60;;;;;;;17.90;89.27;99776.69;6255315;28;20056;-89
2022/07/10 13:34:24;;;;;;;3.67;1.52;;;;;;;18.12;91.35;99783.38;6273315;28;20053;-85
2022/07/10 13:37:25;;;;;;;2.78;2.05;;;;;;;18.24;88.12;99773.44;6254817;28;20396;-77
2022/07/10 13:40:31;;;;;;;2.67;1.90;;;;;;;18.25;89.71;99782.19;6254271;28;20041;-77
2022/07/10 13:43:31;;;;;;;2.25;1.63;;;;;;;17.81;93.63;99774.06;6272030;28;20282;-77
2022/07/10 13:46:33;;;;;;;6.03;1.70;;;;;;;18.60;87.84;99765.50;6237946;28;20057;-77
2022/07/10 13:49:36;;;;;;;2.20;1.70;;;;;;;18.60;84.85;99768.16;6254517;28;20107;-78
2022/07/10 13:52:37;;;;;;;3.05;1.50;;;;;;;18.47;88.19;99770.34;6254079;28;20037;-77
2022/07/10 13:55:40;;;;;;;2.45;1.75;;;;;;;18.49;88.27;99765.72;6254588;28;20072;-88
2022/07/10 13:58:42;;;;;;;2.20;1.40;;;;;;;18.68;83.92;99767.41;6272279;28;20041;-77
2022/07/10 14:01:43;;;;;;;2.15;1.50;;;;;;;19.02;80.03;99767.50;6221012;28;20056;-77
2022/07/10 14:04:44;;;;;;;3.78;1.55;;;;;;;18.67;81.58;99758.63;6254092;28;20399;-78
2022/07/10 14:07:45;;;;;;;2.13;1.45;;;;;;;19.25;79.21;99754.59;6204891;28;20103;-78
2022/07/10 14:10:46;;;;;;;1.27;1.17;;;;;;;19.49;73.43;99761.81;6237937;28;20052;-85
2022/07/10 14:13:47;;;;;;;1.65;1.08;;;;;;;19.54;71.56;99756.06;6254127;28;20095;-85
2022/07/10 14:16:49;;;;;;;1.00;0.90;;;;;;;19.11;69.96;99755.19;6253843;28;20041;-87
2022/07/10 14:19:50;;;;;;;1.80;1.48;;;;;;;19.09;71.66;99765.09;6254051;28;20045;-85
2022/07/10 14:22:51;;;;;;;1.08;0.82;;;;;;;19.12;73.24;99767.41;6254521;28;20068;-85
2022/07/10 14:25:55;;;;;;;2.58;1.10;;;;;;;18.96;72.53;99767.28;6254074;28;20459;-79
2022/07/10 14:28:56;;;;;;;1.20;1.05;;;;;;;18.95;72.95;99779.69;6221842;28;20127;-78
2022/07/10 14:31:57;;;;;;;2.08;0.70;;;;;;;18.39;74.91;99781.69;6253990;28;20048;-79
2022/07/10 14:34:58;;;;;;;1.20;1.10;;;;;;;18.57;80.15;99792.22;6237391;28;20116;-79